Time;durP1;ratioP1;P1;durP2;ratioP2;P2;SDS_P1;SDS_P2;PMS_P1;PMS_P2;Temp;Humidity;BMP_temperature;BMP_pressure;BME280_temperature;BME280_humidity;BME280_pressure;Samples;Min_cycle;Max_cycle;Signal;HPM_P1;HPM_P2
2023/06/23 00:01:39;;;;;;;10.18;9.27;;;;;;;;;;5092858;28;20382;-59
2023/06/23 00:04:06;;;;;;;10.60;9.60;;;;;;;;;;5091091;28;20056;-60
2023/06/23 00:06:33;;;;;;;9.45;8.60;;;;;;;;;;5090617;28;20055;-60
2023/06/23 00:09:01;;;;;;;9.45;8.35;;;;;;;;;;5091695;28;20156;-59
2023/06/23 00:11:28;;;;;;;9.95;8.95;;;;;;;;;;5093019;28;20059;-59
2023/06/23 00:13:56;;;;;;;7.20;6.47;;;;;;;;;;5093083;28;20063;-60
2023/06/23 00:16:23;;;;;;;7.20;6.50;;;;;;;;;;5092502;28;20058;-59
2023/06/23 00:18:52;;;;;;;7.95;7.15;;;;;;;;;;5092605;28;20048;-59
2023/06/23 00:21:20;;;;;;;9.88;8.95;;;;;;;;;;5092013;28;20106;-59
2023/06/23 00:23:49;;;;;;;9.77;8.77;;;;;;;;;;5092297;28;20044;-59
2023/06/23 00:26:16;;;;;;;;;;;;;;;;;;5093252;28;20406;-59
2023/06/23 00:28:43;;;;;;;8.85;7.95;;;;;;;;;;5092687;28;20288;-59
2023/06/23 00:31:11;;;;;;;9.30;8.50;;;;;;;;;;5092571;28;20052;-60
2023/06/23 00:33:39;;;;;;;8.90;8.00;;;;;;;;;;5089819;28;21526;-60
2023/06/23 00:36:06;;;;;;;8.45;7.65;;;;;;;;;;5092530;28;20063;-60
2023/06/23 00:38:36;;;;;;;10.30;9.30;;;;;;;;;;5092247;28;20453;-60
2023/06/23 00:41:02;;;;;;;9.30;8.40;;;;;;;;;;5092544;28;20063;-60
2023/06/23 00:43:30;;;;;;;9.50;8.60;;;;;;;;;;5092156;28;20051;-61
2023/06/23 00:45:59;;;;;;;10.20;9.20;;;;;;;;;;5092445;28;20409;-60
2023/06/23 00:48:27;;;;;;;9.30;8.40;;;;;;;;;;5091126;28;20056;-62
2023/06/23 00:50:55;;;;;;;8.95;8.05;;;;;;;;;;5086686;28;20059;-61
2023/06/23 00:53:26;;;;;;;9.87;8.97;;;;;;;;;;5091768;28;20051;-61
2023/06/23 00:55:54;;;;;;;9.05;7.95;;;;;;;;;;5092828;28;20048;-61
2023/06/23 00:58:21;;;;;;;9.60;8.60;;;;;;;;;;5095776;28;20143;-61
2023/06/23 01:00:50;;;;;;;9.80;8.80;;;;;;;;;;5096194;28;20477;-61
2023/06/23 01:03:16;;;;;;;9.27;8.38;;;;;;;;;;5093012;28;20048;-61
2023/06/23 01:05:46;;;;;;;8.00;7.30;;;;;;;;;;5096690;28;20063;-61
2023/06/23 01:08:25;;;;;;;8.18;6.97;;;;;;;;;;5096638;28;20048;-61
2023/06/23 01:10:56;;;;;;;8.00;7.30;;;;;;;;;;5096316;28;20059;-61
2023/06/23 01:13:28;;;;;;;8.80;7.93;;;;;;;;;;5096201;28;20071;-61
2023/06/23 01:15:58;;;;;;;9.20;8.32;;;;;;;;;;5096145;28;20071;-61
2023/06/23 01:18:24;;;;;;;;;;;;;;;;;;5094313;28;20044;-61
2023/06/23 01:20:53;;;;;;;7.38;6.13;;;;;;;;;;5096108;28;19920;-62
2023/06/23 01:23:29;;;;;;;7.05;6.35;;;;;;;;;;5096117;28;20048;-62
2023/06/23 01:25:58;;;;;;;8.35;6.43;;;;;;;;;;5096145;28;20052;-62
2023/06/23 01:28:39;;;;;;;6.97;6.05;;;;;;;;;;5096005;28;20055;-62
2023/06/23 01:31:07;;;;;;;7.60;6.90;;;;;;;;;;5096422;28;20452;-62
2023/06/23 01:33:39;;;;;;;8.15;6.20;;;;;;;;;;5091764;28;20055;-62
2023/06/23 01:36:07;;;;;;;7.68;6.50;;;;;;;;;;5096087;28;20056;-62
2023/06/23 01:38:36;;;;;;;7.13;6.40;;;;;;;;;;5095604;28;20059;-62
2023/06/23 01:41:06;;;;;;;8.10;6.95;;;;;;;;;;5091378;28;20114;-61
2023/06/23 01:43:35;;;;;;;7.63;6.93;;;;;;;;;;5095835;28;20052;-62
2023/06/23 01:46:04;;;;;;;8.23;7.38;;;;;;;;;;5095784;28;20052;-62
2023/06/23 01:48:33;;;;;;;8.48;7.43;;;;;;;;;;5092968;28;20048;-62
2023/06/23 01:51:02;;;;;;;7.57;6.17;;;;;;;;;;5095800;28;20404;-62
2023/06/23 01:53:31;;;;;;;8.70;7.80;;;;;;;;;;5095302;28;20043;-62
2023/06/23 01:55:59;;;;;;;8.02;6.70;;;;;;;;;;5094260;28;20416;-62
2023/06/23 01:58:26;;;;;;;7.30;6.10;;;;;;;;;;5095405;28;20410;-61
2023/06/23 02:00:55;;;;;;;7.82;6.97;;;;;;;;;;5095359;28;20059;-61
2023/06/23 02:03:22;;;;;;;7.43;6.65;;;;;;;;;;5092199;28;20048;-61
2023/06/23 02:05:49;;;;;;;8.88;7.97;;;;;;;;;;5095682;28;20058;-61
2023/06/23 02:08:16;;;;;;;8.30;7.30;;;;;;;;;;5094980;28;20484;-61
2023/06/23 02:10:43;;;;;;;9.48;8.57;;;;;;;;;;5094285;28;20056;-61
2023/06/23 02:13:11;;;;;;;9.10;8.13;;;;;;;;;;5094580;28;20500;-61
2023/06/23 02:15:38;;;;;;;8.73;7.85;;;;;;;;;;5095514;28;20052;-61
2023/06/23 02:18:08;;;;;;;9.80;8.35;;;;;;;;;;5092767;28;20055;-61
2023/06/23 02:20:36;;;;;;;9.27;8.38;;;;;;;;;;5086378;28;20385;-61
2023/06/23 02:23:03;;;;;;;9.55;8.45;;;;;;;;;;5094767;28;20052;-61
2023/06/23 02:25:30;;;;;;;9.13;8.07;;;;;;;;;;5093721;28;20380;-61
2023/06/23 02:27:58;;;;;;;9.75;8.40;;;;;;;;;;5092141;28;20492;-61
2023/06/23 02:30:24;;;;;;;9.18;8.18;;;;;;;;;;5086802;28;20059;-61
2023/06/23 02:32:51;;;;;;;9.43;8.52;;;;;;;;;;5091383;28;20055;-61
2023/06/23 02:35:20;;;;;;;10.15;9.15;;;;;;;;;;5086283;28;20510;-62
2023/06/23 02:37:49;;;;;;;12.10;9.63;;;;;;;;;;5094967;28;20062;-61
2023/06/23 02:40:18;;;;;;;11.15;9.60;;;;;;;;;;5094140;28;20052;-61
2023/06/23 02:42:48;;;;;;;11.85;10.65;;;;;;;;;;5074334;28;20048;-62
2023/06/23 02:45:14;;;;;;;;;;;;;;;;;;5075167;28;20059;-61
2023/06/23 02:47:41;;;;;;;12.15;10.95;;;;;;;;;;5079880;28;19927;-61
2023/06/23 02:50:12;;;;;;;12.05;10.38;;;;;;;;;;5093415;28;20492;-62
2023/06/23 02:52:42;;;;;;;10.57;9.50;;;;;;;;;;5094526;28;20380;-61
2023/06/23 02:55:10;;;;;;;12.43;11.13;;;;;;;;;;5092760;28;20055;-62
2023/06/23 02:57:38;;;;;;;12.82;11.55;;;;;;;;;;5094253;28;20488;-63
2023/06/23 03:00:12;;;;;;;11.95;10.80;;;;;;;;;;5092695;28;20047;-62
2023/06/23 03:02:42;;;;;;;14.02;11.93;;;;;;;;;;5094653;28;20056;-62
2023/06/23 03:05:09;;;;;;;14.13;12.73;;;;;;;;;;5090407;28;20048;-62
2023/06/23 03:07:38;;;;;;;14.50;12.75;;;;;;;;;;5093097;28;20059;-63
2023/06/23 03:10:05;;;;;;;;;;;;;;;;;;5094501;28;20055;-63
2023/06/23 03:12:33;;;;;;;15.55;14.07;;;;;;;;;;5093863;28;19942;-62
2023/06/23 03:15:00;;;;;;;15.23;13.73;;;;;;;;;;5092906;28;20500;-61
2023/06/23 03:17:29;;;;;;;15.75;14.13;;;;;;;;;;5094133;28;20052;-63
2023/06/23 03:19:57;;;;;;;16.77;15.07;;;;;;;;;;5089235;28;20048;-63
2023/06/23 03:22:26;;;;;;;16.55;14.88;;;;;;;;;;5093562;28;20059;-62
2023/06/23 03:24:54;;;;;;;15.00;13.60;;;;;;;;;;5092495;28;20048;-62
2023/06/23 03:27:23;;;;;;;15.82;14.02;;;;;;;;;;5092895;28;20056;-62
2023/06/23 03:29:54;;;;;;;17.30;15.50;;;;;;;;;;5092123;28;20052;-62
2023/06/23 03:32:24;;;;;;;17.00;15.18;;;;;;;;;;5092765;28;20416;-62
2023/06/23 03:34:53;;;;;;;16.75;15.05;;;;;;;;;;5090168;28;20043;-61
2023/06/23 03:37:21;;;;;;;18.77;17.00;;;;;;;;;;5092940;28;20067;-62
2023/06/23 03:39:51;;;;;;;16.95;15.25;;;;;;;;;;5084283;28;20063;-62
2023/06/23 03:42:19;;;;;;;17.42;15.68;;;;;;;;;;5091779;28;20056;-61
2023/06/23 03:44:48;;;;;;;17.63;15.88;;;;;;;;;;5092712;28;20051;-62
2023/06/23 03:47:17;;;;;;;17.25;15.45;;;;;;;;;;5091917;28;20078;-62
2023/06/23 03:49:45;;;;;;;15.85;14.27;;;;;;;;;;5081805;28;20056;-62
2023/06/23 03:52:14;;;;;;;15.63;14.13;;;;;;;;;;5092564;28;20056;-62
2023/06/23 03:54:41;;;;;;;14.07;12.77;;;;;;;;;;5078939;28;20048;-62
2023/06/23 03:57:10;;;;;;;15.30;13.75;;;;;;;;;;5092182;28;20056;-61
2023/06/23 03:59:39;;;;;;;17.77;15.90;;;;;;;;;;5112369;28;20058;-62
2023/06/23 04:02:06;;;;;;;17.02;15.40;;;;;;;;;;5112442;28;20058;-62
2023/06/23 04:04:35;;;;;;;17.73;15.82;;;;;;;;;;5090923;28;20051;-62
2023/06/23 04:07:02;;;;;;;15.57;14.02;;;;;;;;;;5112324;28;20062;-62
2023/06/23 04:09:29;;;;;;;16.52;15.02;;;;;;;;;;5112488;28;20499;-62
2023/06/23 04:11:56;;;;;;;18.42;16.63;;;;;;;;;;5112513;28;20066;-62
2023/06/23 04:14:25;;;;;;;17.98;16.17;;;;;;;;;;5112453;28;20397;-62
2023/06/23 04:16:52;;;;;;;15.95;14.30;;;;;;;;;;5112078;28;20052;-61
2023/06/23 04:19:21;;;;;;;19.17;17.27;;;;;;;;;;5106996;28;20047;-62
2023/06/23 04:21:50;;;;;;;19.10;17.25;;;;;;;;;;5112526;28;20063;-62
2023/06/23 04:24:17;;;;;;;19.23;17.23;;;;;;;;;;5067269;28;1287714;-62
2023/06/23 04:26:45;;;;;;;19.65;17.73;;;;;;;;;;5112643;28;20055;-62
2023/06/23 04:29:13;;;;;;;23.15;20.85;;;;;;;;;;5112847;28;20157;-62
2023/06/23 04:31:39;;;;;;;22.25;19.85;;;;;;;;;;5112999;28;20052;-61
2023/06/23 04:34:06;;;;;;;24.73;22.20;;;;;;;;;;5102169;28;20051;-62
2023/06/23 04:36:40;;;;;;;26.00;23.40;;;;;;;;;;5092728;28;20056;-62
2023/06/23 04:39:11;;;;;;;26.65;24.00;;;;;;;;;;5091788;28;20059;-62
2023/06/23 04:41:39;;;;;;;25.73;22.98;;;;;;;;;;5078898;28;20076;-62
2023/06/23 04:44:08;;;;;;;27.83;25.05;;;;;;;;;;5072349;28;20056;-61
2023/06/23 04:46:37;;;;;;;25.05;22.42;;;;;;;;;;5072794;28;20052;-61
2023/06/23 04:49:07;;;;;;;25.67;22.92;;;;;;;;;;5076644;28;20477;-62
2023/06/23 04:51:36;;;;;;;26.25;23.38;;;;;;;;;;5092082;28;20048;-62
2023/06/23 04:54:08;;;;;;;24.27;21.67;;;;;;;;;;5092026;28;20404;-62
2023/06/23 04:56:37;;;;;;;26.48;21.52;;;;;;;;;;5091604;28;20488;-62
2023/06/23 04:59:06;;;;;;;26.13;23.33;;;;;;;;;;5092021;28;20056;-61
2023/06/23 05:01:33;;;;;;;25.83;23.20;;;;;;;;;;5084466;28;20496;-61
2023/06/23 05:04:01;;;;;;;25.40;22.77;;;;;;;;;;5087672;28;20757;-62
2023/06/23 05:06:29;;;;;;;23.45;20.95;;;;;;;;;;5090648;28;20061;-61
2023/06/23 05:08:57;;;;;;;23.13;19.90;;;;;;;;;;5088967;28;20048;-61
2023/06/23 05:11:25;;;;;;;25.05;22.45;;;;;;;;;;5096731;28;20047;-60
2023/06/23 05:13:53;;;;;;;24.17;21.17;;;;;;;;;;5090421;28;20071;-59
2023/06/23 05:16:21;;;;;;;22.45;20.10;;;;;;;;;;5102137;28;20067;-62
2023/06/23 05:18:48;;;;;;;22.85;19.65;;;;;;;;;;5087866;28;20059;-62
2023/06/23 05:21:17;;;;;;;26.70;21.40;;;;;;;;;;5088309;28;20060;-59
2023/06/23 05:23:45;;;;;;;25.88;21.42;;;;;;;;;;5092460;28;20419;-59
2023/06/23 05:26:13;;;;;;;25.05;22.60;;;;;;;;;;5090470;28;20045;-60
2023/06/23 05:28:40;;;;;;;24.40;21.90;;;;;;;;;;5088486;28;20492;-62
2023/06/23 05:31:09;;;;;;;21.77;19.55;;;;;;;;;;5091340;28;20486;-62
2023/06/23 05:33:37;;;;;;;21.90;19.67;;;;;;;;;;5086695;28;20099;-62
2023/06/23 05:36:05;;;;;;;22.60;20.30;;;;;;;;;;5089169;28;20055;-62
2023/06/23 05:38:32;;;;;;;24.25;21.73;;;;;;;;;;5090370;28;20055;-62
2023/06/23 05:40:59;;;;;;;26.13;23.55;;;;;;;;;;5089156;28;20123;-62
2023/06/23 05:43:26;;;;;;;25.17;22.63;;;;;;;;;;5096577;28;20059;-62
2023/06/23 05:45:54;;;;;;;22.77;19.85;;;;;;;;;;5084895;28;20492;-52
2023/06/23 05:48:27;;;;;;;19.80;17.77;;;;;;;;;;5092419;28;20060;-50
2023/06/23 05:50:55;;;;;;;20.40;18.27;;;;;;;;;;5090403;28;20059;-53
2023/06/23 05:53:23;;;;;;;17.98;16.27;;;;;;;;;;5093980;28;20044;-50
2023/06/23 05:55:51;;;;;;;20.20;18.27;;;;;;;;;;5093408;28;20047;-49
2023/06/23 05:58:19;;;;;;;21.55;19.35;;;;;;;;;;5095563;28;20484;-49
2023/06/23 06:00:47;;;;;;;22.70;20.60;;;;;;;;;;5091324;28;20468;-50
2023/06/23 06:03:16;;;;;;;20.80;18.97;;;;;;;;;;5086899;28;20052;-51
2023/06/23 06:05:46;;;;;;;22.57;20.47;;;;;;;;;;5092148;28;20490;-50
2023/06/23 06:08:14;;;;;;;19.75;17.75;;;;;;;;;;5095008;28;20063;-39
2023/06/23 06:10:42;;;;;;;19.95;17.88;;;;;;;;;;5092298;28;20062;-39
2023/06/23 06:13:09;;;;;;;21.27;19.13;;;;;;;;;;5093764;28;20052;-39
2023/06/23 06:15:37;;;;;;;19.65;17.77;;;;;;;;;;5092899;28;20402;-50
2023/06/23 06:18:05;;;;;;;20.30;18.48;;;;;;;;;;5093295;28;20055;-50
2023/06/23 06:20:33;;;;;;;18.50;16.60;;;;;;;;;;5091490;28;20049;-50
2023/06/23 06:23:02;;;;;;;18.13;16.40;;;;;;;;;;5093257;28;20431;-51
2023/06/23 06:25:29;;;;;;;18.65;17.00;;;;;;;;;;5080162;28;20051;-51
2023/06/23 06:27:56;;;;;;;20.10;18.13;;;;;;;;;;5085525;28;20055;-50
2023/06/23 06:30:24;;;;;;;19.33;17.42;;;;;;;;;;5085524;28;20055;-51
2023/06/23 06:32:53;;;;;;;18.52;16.83;;;;;;;;;;5084585;28;20079;-51
2023/06/23 06:35:22;;;;;;;17.60;15.85;;;;;;;;;;5080695;28;20453;-51
2023/06/23 06:37:51;;;;;;;16.77;15.18;;;;;;;;;;5087277;28;20052;-50
2023/06/23 06:40:17;;;;;;;;;;;;;;;;;;5084903;28;20052;-51
2023/06/23 06:42:45;;;;;;;16.70;14.95;;;;;;;;;;5087563;28;19935;-51
2023/06/23 06:45:13;;;;;;;15.93;14.25;;;;;;;;;;5084857;28;20059;-52
2023/06/23 06:47:43;;;;;;;15.77;14.15;;;;;;;;;;5086058;28;20139;-39
2023/06/23 06:50:10;;;;;;;15.55;13.98;;;;;;;;;;5085106;28;20062;-39
2023/06/23 06:52:37;;;;;;;15.30;13.80;;;;;;;;;;5083078;28;20626;-39
2023/06/23 06:55:05;;;;;;;14.43;13.02;;;;;;;;;;5085404;28;20114;-39
2023/06/23 06:57:32;;;;;;;14.75;13.35;;;;;;;;;;5082696;28;20582;-39
2023/06/23 07:00:00;;;;;;;12.45;11.25;;;;;;;;;;5078394;28;20055;-39
2023/06/23 07:02:27;;;;;;;12.88;11.68;;;;;;;;;;5083095;28;20407;-40
2023/06/23 07:04:54;;;;;;;12.50;11.23;;;;;;;;;;5084928;28;20063;-39
2023/06/23 07:07:20;;;;;;;13.13;11.93;;;;;;;;;;5086047;28;20055;-52
2023/06/23 07:09:47;;;;;;;12.52;11.27;;;;;;;;;;5082377;28;20052;-52
2023/06/23 07:12:14;;;;;;;11.63;10.52;;;;;;;;;;5077826;28;20059;-51
2023/06/23 07:14:41;;;;;;;11.90;10.70;;;;;;;;;;5084026;28;20059;-62
2023/06/23 07:17:09;;;;;;;13.57;12.27;;;;;;;;;;5082453;28;20070;-66
2023/06/23 07:19:37;;;;;;;12.77;11.55;;;;;;;;;;5083672;28;20056;-66
2023/06/23 07:22:04;;;;;;;15.35;11.63;;;;;;;;;;5086262;28;20052;-66
2023/06/23 07:24:31;;;;;;;12.18;10.98;;;;;;;;;;5084409;28;20090;-66
2023/06/23 07:26:58;;;;;;;13.25;11.95;;;;;;;;;;5083060;28;20381;-66
2023/06/23 07:29:25;;;;;;;11.68;10.20;;;;;;;;;;5081502;28;20488;-66
2023/06/23 07:31:52;;;;;;;10.40;9.43;;;;;;;;;;5084592;28;20489;-66
2023/06/23 07:34:20;;;;;;;11.15;10.15;;;;;;;;;;5083937;28;20052;-67
2023/06/23 07:36:47;;;;;;;10.23;9.25;;;;;;;;;;5084602;28;20055;-66
2023/06/23 07:39:14;;;;;;;10.15;9.05;;;;;;;;;;5087163;28;20060;-67
2023/06/23 07:41:41;;;;;;;10.30;8.63;;;;;;;;;;5084991;28;20063;-67
2023/06/23 07:44:07;;;;;;;10.77;9.00;;;;;;;;;;5083284;28;20083;-66
2023/06/23 07:46:35;;;;;;;9.65;8.65;;;;;;;;;;5078162;28;20051;-66
2023/06/23 07:49:02;;;;;;;10.70;8.65;;;;;;;;;;5082163;28;20044;-66
2023/06/23 07:51:30;;;;;;;8.10;7.40;;;;;;;;;;5076910;28;20059;-66
2023/06/23 07:53:57;;;;;;;8.95;7.05;;;;;;;;;;5084864;28;20052;-66
2023/06/23 07:56:23;;;;;;;6.88;6.18;;;;;;;;;;5084635;28;20059;-64
2023/06/23 07:58:50;;;;;;;7.82;6.05;;;;;;;;;;5083875;28;20052;-64
2023/06/23 08:01:17;;;;;;;8.75;6.40;;;;;;;;;;5080428;28;20420;-65
2023/06/23 08:03:45;;;;;;;7.15;5.95;;;;;;;;;;5079756;28;20420;-65
2023/06/23 08:06:12;;;;;;;7.10;5.82;;;;;;;;;;5074427;28;20516;-65
2023/06/23 08:08:40;;;;;;;6.38;5.63;;;;;;;;;;5074444;28;20056;-64
2023/06/23 08:11:07;;;;;;;5.90;5.27;;;;;;;;;;5083837;28;20055;-65
2023/06/23 08:13:33;;;;;;;6.80;4.60;;;;;;;;;;5083903;28;20485;-64
2023/06/23 08:16:00;;;;;;;5.82;4.60;;;;;;;;;;5080645;28;20404;-65
2023/06/23 08:18:27;;;;;;;6.00;4.68;;;;;;;;;;5082019;28;20047;-64
2023/06/23 08:20:55;;;;;;;5.72;4.35;;;;;;;;;;5082199;28;20048;-64
2023/06/23 08:23:21;;;;;;;7.25;5.28;;;;;;;;;;5083941;28;20051;-65
2023/06/23 08:25:50;;;;;;;5.65;4.10;;;;;;;;;;5084076;28;20071;-64
2023/06/23 08:28:16;;;;;;;4.05;3.63;;;;;;;;;;5079522;28;20044;-64
2023/06/23 08:30:43;;;;;;;4.53;3.70;;;;;;;;;;5078960;28;20056;-65
2023/06/23 08:33:10;;;;;;;4.55;3.17;;;;;;;;;;5084607;28;20051;-64
2023/06/23 08:35:37;;;;;;;5.10;3.70;;;;;;;;;;5084409;28;20408;-65
2023/06/23 08:38:05;;;;;;;4.68;3.40;;;;;;;;;;5083485;28;20419;-65
2023/06/23 08:40:31;;;;;;;5.05;3.60;;;;;;;;;;5083032;28;20099;-65
2023/06/23 08:43:00;;;;;;;4.75;3.80;;;;;;;;;;5087032;28;20047;-65
2023/06/23 08:45:28;;;;;;;4.68;3.53;;;;;;;;;;5076972;28;20063;-64
2023/06/23 08:47:58;;;;;;;6.17;3.40;;;;;;;;;;5082708;28;20051;-64
2023/06/23 08:50:25;;;;;;;5.90;3.55;;;;;;;;;;5082248;28;20055;-65
2023/06/23 08:52:52;;;;;;;4.35;3.25;;;;;;;;;;5084259;28;20443;-66
2023/06/23 08:55:19;;;;;;;5.28;3.55;;;;;;;;;;5082404;28;20075;-65
2023/06/23 08:57:45;;;;;;;4.57;3.25;;;;;;;;;;5085747;28;20425;-64
2023/06/23 09:00:14;;;;;;;3.63;3.17;;;;;;;;;;5083896;28;20389;-66
2023/06/23 09:02:41;;;;;;;;;;;;;;;;;;5082477;28;20060;-65
2023/06/23 09:05:08;;;;;;;5.00;3.17;;;;;;;;;;5076211;28;20491;-66
2023/06/23 09:07:35;;;;;;;6.25;3.10;;;;;;;;;;5080098;28;20055;-65
2023/06/23 09:10:02;;;;;;;4.22;3.10;;;;;;;;;;5081188;28;20417;-65
2023/06/23 09:12:28;;;;;;;3.85;2.80;;;;;;;;;;5081830;28;20052;-64
2023/06/23 09:14:57;;;;;;;4.20;3.20;;;;;;;;;;5082917;28;20377;-65
2023/06/23 09:17:25;;;;;;;5.53;3.65;;;;;;;;;;5082213;28;20048;-65
2023/06/23 09:19:54;;;;;;;3.75;2.80;;;;;;;;;;5091865;28;20052;-64
2023/06/23 09:22:21;;;;;;;3.80;2.92;;;;;;;;;;5086223;28;20044;-65
2023/06/23 09:24:49;;;;;;;3.67;2.70;;;;;;;;;;5091799;28;20056;-66
2023/06/23 09:27:15;;;;;;;3.85;2.78;;;;;;;;;;5091502;28;20044;-63
2023/06/23 09:29:43;;;;;;;4.13;3.53;;;;;;;;;;5089190;28;20043;-61
2023/06/23 09:32:10;;;;;;;3.83;2.88;;;;;;;;;;5090344;28;20052;-62
2023/06/23 09:34:38;;;;;;;3.40;2.95;;;;;;;;;;5090735;28;20055;-62
2023/06/23 09:37:06;;;;;;;3.78;3.28;;;;;;;;;;5091660;28;20048;-63
2023/06/23 09:39:33;;;;;;;4.35;3.30;;;;;;;;;;5094246;28;20058;-62
2023/06/23 09:42:00;;;;;;;3.40;3.10;;;;;;;;;;5093482;28;20420;-63
2023/06/23 09:44:34;;;;;;;3.70;2.90;;;;;;;;;;5093551;28;20503;-63
2023/06/23 09:47:01;;;;;;;3.72;2.83;;;;;;;;;;5091198;28;20044;-63
2023/06/23 09:49:28;;;;;;;4.88;2.58;;;;;;;;;;5093091;28;20484;-63
2023/06/23 09:51:56;;;;;;;4.15;2.88;;;;;;;;;;5093226;28;20067;-64
2023/06/23 09:54:22;;;;;;;;;;;;;;;;;;5085208;28;20469;-64
2023/06/23 09:57:01;;;;;;;4.13;2.95;;;;;;;;;;5084981;28;19943;-64
2023/06/23 09:59:30;;;;;;;3.80;2.90;;;;;;;;;;5083829;28;20057;-64
2023/06/23 10:01:57;;;;;;;3.33;2.90;;;;;;;;;;5086022;28;20051;-64
2023/06/23 10:04:27;;;;;;;5.88;3.25;;;;;;;;;;5081740;28;20048;-64
2023/06/23 10:06:55;;;;;;;6.22;3.22;;;;;;;;;;5091571;28;20060;-64
2023/06/23 10:09:23;;;;;;;5.03;2.80;;;;;;;;;;5079155;28;20400;-64
2023/06/23 10:11:50;;;;;;;3.95;2.75;;;;;;;;;;5076217;28;20396;-63
2023/06/23 10:14:18;;;;;;;4.90;2.65;;;;;;;;;;5085411;28;20484;-64
2023/06/23 10:16:44;;;;;;;3.97;3.00;;;;;;;;;;5090086;28;20086;-63
2023/06/23 10:19:11;;;;;;;2.78;2.58;;;;;;;;;;5093184;28;20056;-64
2023/06/23 10:21:39;;;;;;;3.50;2.83;;;;;;;;;;5092454;28;20515;-64
2023/06/23 10:24:09;;;;;;;3.60;3.05;;;;;;;;;;5098987;28;20052;-64
2023/06/23 10:26:37;;;;;;;3.92;3.20;;;;;;;;;;5091448;28;20059;-64
2023/06/23 10:29:03;;;;;;;;;;;;;;;;;;5092826;28;20058;-65
2023/06/23 10:31:31;;;;;;;6.07;3.08;;;;;;;;;;5089439;28;19935;-64
2023/06/23 10:33:58;;;;;;;3.05;2.75;;;;;;;;;;5092804;28;20399;-64
2023/06/23 10:36:25;;;;;;;3.58;2.60;;;;;;;;;;5090122;28;20048;-63
2023/06/23 10:38:54;;;;;;;3.33;2.60;;;;;;;;;;5087180;28;20056;-63
2023/06/23 10:41:26;;;;;;;3.03;2.70;;;;;;;;;;5093826;28;20052;-63
2023/06/23 10:43:55;;;;;;;3.15;2.80;;;;;;;;;;5102939;28;20354;-63
2023/06/23 10:46:23;;;;;;;3.30;2.78;;;;;;;;;;5088671;28;20055;-63
2023/06/23 10:48:49;;;;;;;;;;;;;;;;;;5097932;28;20079;-63
2023/06/23 10:51:16;;;;;;;3.03;2.72;;;;;;;;;;5087620;28;19920;-63
2023/06/23 10:53:50;;;;;;;2.65;2.45;;;;;;;;;;5077700;28;20075;-63
2023/06/23 10:56:31;;;;;;;4.50;2.72;;;;;;;;;;5085444;28;20047;-63
2023/06/23 10:58:58;;;;;;;3.95;2.83;;;;;;;;;;5084625;28;20067;-63
2023/06/23 11:01:26;;;;;;;3.25;2.88;;;;;;;;;;5081602;28;20048;-62
2023/06/23 11:03:53;;;;;;;3.20;2.42;;;;;;;;;;5086307;28;20049;-64
2023/06/23 11:06:26;;;;;;;2.42;2.22;;;;;;;;;;5080000;28;20055;-64
2023/06/23 11:08:54;;;;;;;3.95;2.75;;;;;;;;;;5064560;28;20045;-63
2023/06/23 11:11:31;;;;;;;4.38;3.13;;;;;;;;;;5083953;28;20413;-64
2023/06/23 11:13:58;;;;;;;3.08;2.78;;;;;;;;;;5065344;28;20044;-63
2023/06/23 11:16:27;;;;;;;3.13;2.70;;;;;;;;;;5083830;28;20051;-63
2023/06/23 11:18:55;;;;;;;2.63;2.42;;;;;;;;;;5084070;28;20507;-63
2023/06/23 11:21:30;;;;;;;3.33;2.88;;;;;;;;;;5084133;28;20051;-63
2023/06/23 11:24:09;;;;;;;3.45;2.42;;;;;;;;;;5077222;28;20056;-63
2023/06/23 11:26:37;;;;;;;3.10;2.78;;;;;;;;;;5085352;28;20066;-63
2023/06/23 11:29:09;;;;;;;3.55;2.60;;;;;;;;;;5083724;28;20055;-63
2023/06/23 11:31:36;;;;;;;3.65;2.97;;;;;;;;;;5084425;28;20056;-63
2023/06/23 11:34:03;;;;;;;2.95;2.60;;;;;;;;;;5072031;28;20048;-63
2023/06/23 11:36:30;;;;;;;3.92;2.75;;;;;;;;;;5074957;28;20049;-63
2023/06/23 11:38:58;;;;;;;3.83;2.60;;;;;;;;;;5091088;28;20044;-64
2023/06/23 11:41:25;;;;;;;2.95;2.65;;;;;;;;;;5090715;28;20048;-65
2023/06/23 11:43:56;;;;;;;3.63;2.50;;;;;;;;;;5091338;28;20056;-63
2023/06/23 11:46:23;;;;;;;2.55;2.22;;;;;;;;;;5087357;28;20048;-64
2023/06/23 11:48:50;;;;;;;3.83;2.50;;;;;;;;;;5088224;28;20073;-63
2023/06/23 11:51:17;;;;;;;3.00;2.70;;;;;;;;;;5084251;28;20059;-63
2023/06/23 11:53:44;;;;;;;3.95;2.95;;;;;;;;;;5088869;28;20043;-64
2023/06/23 11:56:15;;;;;;;4.75;2.97;;;;;;;;;;5087584;28;20063;-63
2023/06/23 11:58:48;;;;;;;3.28;2.70;;;;;;;;;;5090270;28;20442;-65
2023/06/23 12:01:17;;;;;;;3.10;2.38;;;;;;;;;;5085283;28;20059;-63
2023/06/23 12:03:45;;;;;;;2.47;2.28;;;;;;;;;;5089062;28;20063;-64
2023/06/23 12:06:14;;;;;;;4.57;2.70;;;;;;;;;;5089679;28;20070;-64
2023/06/23 12:08:41;;;;;;;4.38;2.30;;;;;;;;;;5095910;28;20047;-64
2023/06/23 12:11:08;;;;;;;3.92;2.50;;;;;;;;;;5084016;28;20059;-64
2023/06/23 12:13:37;;;;;;;2.92;2.53;;;;;;;;;;5089006;28;20052;-64
2023/06/23 12:16:04;;;;;;;3.50;2.40;;;;;;;;;;5085778;28;20052;-64
2023/06/23 12:18:33;;;;;;;3.13;2.42;;;;;;;;;;5088768;28;20412;-64
2023/06/23 12:21:00;;;;;;;2.40;1.92;;;;;;;;;;5085069;28;20059;-64
2023/06/23 12:23:27;;;;;;;;;;;;;;;;;;5091582;28;20052;-64
2023/06/23 12:25:54;;;;;;;3.05;2.40;;;;;;;;;;5090142;28;19919;-64
2023/06/23 12:28:21;;;;;;;4.57;2.80;;;;;;;;;;5088634;28;20067;-64
2023/06/23 12:30:48;;;;;;;2.80;2.42;;;;;;;;;;5083690;28;20056;-63
2023/06/23 12:33:16;;;;;;;3.28;2.50;;;;;;;;;;5089297;28;20055;-63
2023/06/23 12:35:43;;;;;;;;;;;;;;;;;;5074044;28;20106;-63
2023/06/23 12:38:13;;;;;;;2.78;2.35;;;;;;;;;;5086434;28;20031;-63
2023/06/23 12:40:43;;;;;;;3.55;2.17;;;;;;;;;;5068837;28;20067;-63
2023/06/23 12:43:10;;;;;;;3.17;2.42;;;;;;;;;;5085773;28;20048;-63
2023/06/23 12:45:37;;;;;;;2.85;2.55;;;;;;;;;;5087755;28;20051;-63
2023/06/23 12:48:07;;;;;;;3.83;2.78;;;;;;;;;;5078639;28;20048;-62
2023/06/23 12:50:34;;;;;;;2.80;2.30;;;;;;;;;;5075288;28;20512;-63
2023/06/23 12:53:01;;;;;;;2.95;2.58;;;;;;;;;;5088730;28;20059;-63
2023/06/23 12:55:30;;;;;;;3.05;2.45;;;;;;;;;;5083282;28;20048;-63
2023/06/23 12:57:56;;;;;;;;;;;;;;;;;;5091604;28;20511;-64
2023/06/23 13:00:24;;;;;;;2.72;2.47;;;;;;;;;;5088734;28;20304;-64
2023/06/23 13:02:52;;;;;;;3.15;2.28;;;;;;;;;;5099128;28;20062;-64
2023/06/23 13:05:19;;;;;;;2.83;2.25;;;;;;;;;;5096894;28;20059;-64
2023/06/23 13:07:46;;;;;;;3.80;2.30;;;;;;;;;;5082558;28;20044;-64
2023/06/23 13:10:12;;;;;;;3.25;2.35;;;;;;;;;;5082221;28;20056;-64
2023/06/23 13:12:41;;;;;;;2.58;2.17;;;;;;;;;;5087781;28;20485;-64
2023/06/23 13:15:08;;;;;;;;;;;;;;;;;;5080343;28;20055;-64
2023/06/23 13:17:34;;;;;;;3.43;2.57;;;;;;;;;;5086225;28;20377;-64
2023/06/23 13:20:02;;;;;;;2.90;2.30;;;;;;;;;;5095875;28;20051;-64
2023/06/23 13:22:28;;;;;;;3.30;2.10;;;;;;;;;;5092886;28;20484;-64
2023/06/23 13:24:56;;;;;;;2.50;2.30;;;;;;;;;;5075452;28;20075;-64
2023/06/23 13:27:26;;;;;;;2.85;2.20;;;;;;;;;;5086963;28;20419;-64
2023/06/23 13:29:54;;;;;;;3.03;2.22;;;;;;;;;;5089535;28;20052;-64
2023/06/23 13:32:21;;;;;;;2.40;2.20;;;;;;;;;;5087873;28;20052;-64
2023/06/23 13:34:48;;;;;;;3.08;2.28;;;;;;;;;;5093344;28;20059;-64
2023/06/23 13:37:15;;;;;;;3.38;2.20;;;;;;;;;;5095195;28;20059;-64
2023/06/23 13:39:44;;;;;;;2.90;2.17;;;;;;;;;;5095922;28;20079;-64
2023/06/23 13:42:11;;;;;;;3.65;2.40;;;;;;;;;;5094156;28;20056;-64
2023/06/23 13:44:38;;;;;;;4.07;2.10;;;;;;;;;;5094287;28;20142;-64
2023/06/23 13:47:06;;;;;;;2.25;2.00;;;;;;;;;;5091623;28;20056;-64
2023/06/23 13:49:33;;;;;;;2.75;1.98;;;;;;;;;;5092228;28;20500;-64
2023/06/23 13:52:02;;;;;;;2.60;2.22;;;;;;;;;;5093293;28;20048;-64
2023/06/23 13:54:29;;;;;;;2.50;2.03;;;;;;;;;;5093408;28;20374;-64
2023/06/23 13:56:56;;;;;;;2.65;2.10;;;;;;;;;;5101250;28;20056;-64
2023/06/23 13:59:22;;;;;;;2.30;1.90;;;;;;;;;;5086683;28;20048;-65
2023/06/23 14:01:52;;;;;;;4.03;2.15;;;;;;;;;;5084201;28;20072;-65
2023/06/23 14:04:21;;;;;;;2.63;2.13;;;;;;;;;;5079323;28;20390;-64
2023/06/23 14:06:48;;;;;;;2.30;2.10;;;;;;;;;;5082448;28;20055;-63
2023/06/23 14:09:15;;;;;;;2.92;2.25;;;;;;;;;;5081567;28;20060;-63
2023/06/23 14:11:42;;;;;;;2.03;1.83;;;;;;;;;;5092118;28;20477;-63
2023/06/23 14:14:37;;;;;;;2.90;1.90;;;;;;;;;;5117504;28;20050;-63
2023/06/23 14:17:04;;;;;;;3.33;2.50;;;;;;;;;;5110662;28;20062;-62
2023/06/23 14:19:32;;;;;;;3.13;2.20;;;;;;;;;;5115543;28;20070;-63
2023/06/23 14:22:03;;;;;;;2.33;2.00;;;;;;;;;;5114904;28;20067;-63
2023/06/23 14:24:30;;;;;;;2.55;2.00;;;;;;;;;;5111084;28;20051;-63
2023/06/23 14:26:57;;;;;;;2.53;2.10;;;;;;;;;;5094969;28;20059;-63
2023/06/23 14:29:24;;;;;;;3.92;2.40;;;;;;;;;;5091946;28;20055;-63
2023/06/23 14:31:51;;;;;;;3.28;2.28;;;;;;;;;;5082713;28;20052;-63
2023/06/23 14:34:18;;;;;;;2.80;2.20;;;;;;;;;;5094692;28;20056;-63
2023/06/23 14:36:48;;;;;;;2.72;2.13;;;;;;;;;;5094942;28;20066;-63
2023/06/23 14:39:15;;;;;;;3.08;2.25;;;;;;;;;;5094066;28;20408;-63
2023/06/23 14:41:42;;;;;;;2.42;2.22;;;;;;;;;;5091974;28;20047;-63
2023/06/23 14:44:09;;;;;;;2.90;2.38;;;;;;;;;;5089850;28;20056;-63